bps-sberbank.by alexa rank chart, bps-sberbank.by alexa rank daily changes

bps-sberbank.by alexa rank chart, bps-sberbank.by alexa rank daily changes

bps-sberbank.by
Actual rank:
40 221

RANK HISTORY

Date Rank Diff
2017/12/18 40 221 +201
2017/12/17 40 020 +159
2017/12/16 39 861 +292
2017/12/15 39 569 +193
2017/12/14 39 376 -204
2017/12/13 39 580 +3
2017/12/12 39 577 +464
2017/12/11 39 113 +109
2017/12/10 39 004 -161
2017/12/09 39 165 -326
2017/12/08 39 491 -191
2017/12/07 39 682 -184
2017/12/06 39 866 +147
2017/12/05 39 719 +391
2017/12/04 39 328 +229
2017/12/03 39 099 -17
2017/12/02 39 116 +105
2017/12/01 39 011 -77
2017/11/30 39 088 +38
2017/11/29 39 050 +137
2017/11/28 38 913 +278
2017/11/27 38 635 +236
2017/11/26 38 399 -27
2017/11/25 38 426 +58
2017/11/24 38 368 -218
2017/11/23 38 586 -170
2017/11/22 38 756 +12
2017/11/21 38 744 +275
2017/11/20 38 469 +292
2017/11/19 38 177 +25
2017/11/18 38 152 +5
2017/11/17 38 147 -397
2017/11/16 38 544 -228
2017/11/15 38 772 +73
2017/11/14 38 699 +394
2017/11/13 38 305 +28
2017/11/12 38 277 -148
2017/11/11 38 425 +20
2017/11/10 38 405 -256
2017/11/09 38 661 +18
2017/11/08 38 643 +286
2017/11/07 38 357 +198
2017/11/06 38 159 -194
2017/11/05 38 353 -114
2017/11/04 38 467 +104
2017/11/03 38 363 -84
2017/11/02 38 447 -304
2017/11/01 38 751 -15
2017/10/31 38 766 +436
2017/10/30 38 330 +83
2017/10/29 38 247 -196
2017/10/28 38 443 -51
2017/10/27 38 494 +4
2017/10/26 38 490 -82
2017/10/25 38 572 -231
2017/10/24 38 803 +431
2017/10/23 38 372 +238
2017/10/22 38 134 -50
2017/10/21 38 184 -73
2017/10/20 38 257 -37
2017/10/19 38 294

WIDGET FOR YOUR SITE

DOMAINS WITH THE NEAREST RANK

Domain Rank
dainikamadershomoy.com 40 216
ekupi.hr 40 217
schoolobjects.com 40 218
pimkie.fr 40 219
speednetwork17.com 40 220
bps-sberbank.by 40 221
minerjet.com 40 222
alaan.org 40 223
galianostore.com 40 224
gw2skills.net 40 225
junpin360.com 40 226

DOMAINS WITH THE NEAREST RANK BY TLD .by

Domain Rank
velcom.by 37 003
edu.by 37 370
lamoda.by 37 381
pressball.by 38 682
mybank.by 39 669
bps-sberbank.by 40 221
sb.by 40 347
e-dostavka.by 41 219
byfly.by 42 104
nn.by 42 618
belinvestbank.by 42 802